Time;durP1;ratioP1;P1;durP2;ratioP2;P2;SDS_P1;SDS_P2;PMS_P1;PMS_P2;Temp;Humidity;BMP_temperature;BMP_pressure;BME280_temperature;BME280_humidity;BME280_pressure;Samples;Min_cycle;Max_cycle;Signal;HPM_P1;HPM_P2
2023/09/06 00:01:18;;;;;;;43.25;41.05;;;;;;;19.42;100.00;101619.53;4999211;28;20054;-76
2023/09/06 00:03:45;;;;;;;42.72;40.53;;;;;;;19.33;100.00;101614.78;5000311;28;20065;-76
2023/09/06 00:06:12;;;;;;;42.60;40.47;;;;;;;19.20;100.00;101619.41;4992857;28;20050;-75
2023/09/06 00:08:40;;;;;;;48.45;46.05;;;;;;;19.39;100.00;101611.13;5003660;28;20050;-76
2023/09/06 00:11:21;;;;;;;43.90;41.50;;;;;;;19.16;100.00;101612.88;4986057;28;20055;-75
2023/09/06 00:13:48;;;;;;;48.65;46.25;;;;;;;19.18;100.00;101623.41;5005053;28;20133;-76
2023/09/06 00:16:16;;;;;;;52.65;50.13;;;;;;;19.23;100.00;101610.03;4992544;28;20058;-76
2023/09/06 00:18:43;;;;;;;45.70;43.20;;;;;;;19.20;100.00;101619.41;4999621;28;20132;-75
2023/09/06 00:21:11;;;;;;;46.83;44.22;;;;;;;19.10;100.00;101613.03;5004483;28;20049;-76
2023/09/06 00:23:53;;;;;;;45.78;43.25;;;;;;;19.26;100.00;101606.06;4998612;28;20058;-76
2023/09/06 00:26:26;;;;;;;47.42;44.83;;;;;;;19.21;100.00;101601.38;5004954;28;20522;-76
2023/09/06 00:28:54;;;;;;;40.35;38.25;;;;;;;19.19;100.00;101601.63;4996741;28;20073;-76
2023/09/06 00:31:21;;;;;;;53.67;50.97;;;;;;;19.31;100.00;101598.88;4996869;28;20531;-76
2023/09/06 00:33:48;;;;;;;54.58;51.78;;;;;;;19.02;100.00;101602.66;4993555;28;20054;-76
2023/09/06 00:36:29;;;;;;;58.60;55.70;;;;;;;18.97;100.00;101601.50;4996307;28;20064;-76
2023/09/06 00:38:57;;;;;;;45.55;43.15;;;;;;;19.99;100.00;101601.59;5008839;28;20061;-76
2023/09/06 00:41:41;;;;;;;51.08;48.45;;;;;;;18.97;100.00;101606.06;4995331;28;20065;-76
2023/09/06 00:44:09;;;;;;;56.13;53.22;;;;;;;18.86;100.00;101609.63;4997329;28;20105;-76
2023/09/06 00:46:37;;;;;;;58.38;55.47;;;;;;;18.90;100.00;101600.00;4997655;28;20054;-76
2023/09/06 00:49:07;;;;;;;45.38;42.88;;;;;;;18.74;100.00;101605.09;5000227;28;20053;-76
2023/09/06 00:51:34;;;;;;;42.85;40.65;;;;;;;18.68;100.00;101599.81;5012306;28;20053;-76
2023/09/06 00:54:04;;;;;;;50.20;47.80;;;;;;;19.02;100.00;101599.97;5005198;28;20201;-76
2023/09/06 00:56:32;;;;;;;46.85;44.55;;;;;;;18.71;100.00;101592.09;4994539;28;20056;-76
2023/09/06 00:59:01;;;;;;;58.35;55.25;;;;;;;18.53;100.00;101598.44;4999868;28;20132;-76
2023/09/06 01:01:28;;;;;;;51.05;48.55;;;;;;;18.41;100.00;101599.53;4995602;28;20412;-75
2023/09/06 01:03:55;;;;;;;50.17;47.78;;;;;;;18.62;100.00;101603.47;4994181;28;20089;-75
2023/09/06 01:06:25;;;;;;;44.88;42.67;;;;;;;18.76;100.00;101596.78;5006546;28;20048;-74
2023/09/06 01:08:56;;;;;;;48.40;46.00;;;;;;;18.84;100.00;101600.97;4996721;28;20068;-75
2023/09/06 01:11:32;;;;;;;42.03;39.83;;;;;;;18.70;100.00;101597.72;4995304;28;20108;-76
2023/09/06 01:14:01;;;;;;;54.15;50.70;;;;;;;18.62;100.00;101608.84;5000561;28;20057;-76
2023/09/06 01:16:32;;;;;;;50.53;48.03;;;;;;;18.61;100.00;101607.19;4993576;28;20530;-75
2023/09/06 01:19:12;;;;;;;45.90;43.60;;;;;;;18.53;100.00;101603.00;5001059;28;20133;-76
2023/09/06 01:21:51;;;;;;;43.90;41.60;;;;;;;18.31;100.00;101605.50;5000462;28;20054;-75
2023/09/06 01:24:20;;;;;;;37.90;35.90;;;;;;;18.32;100.00;101609.81;4998834;28;20046;-75
2023/09/06 01:26:47;;;;;;;39.08;36.97;;;;;;;18.37;100.00;101609.13;4999553;28;20050;-75
2023/09/06 01:29:14;;;;;;;40.63;38.63;;;;;;;18.34;100.00;101610.41;5005454;28;20488;-76
2023/09/06 01:31:40;;;;;;;49.13;46.72;;;;;;;18.33;100.00;101607.94;5007609;28;20050;-75
2023/09/06 01:34:07;;;;;;;48.88;46.58;;;;;;;18.29;100.00;101604.91;4999575;28;20042;-75
2023/09/06 01:36:34;;;;;;;49.20;46.75;;;;;;;18.12;100.00;101604.81;4992393;28;20054;-76
2023/09/06 01:39:01;;;;;;;39.72;37.63;;;;;;;17.67;100.00;101617.94;4999827;28;20050;-76
2023/09/06 01:41:29;;;;;;;38.17;36.08;;;;;;;17.31;100.00;101606.31;4996637;28;20149;-75
2023/09/06 01:43:57;;;;;;;33.65;31.75;;;;;;;17.33;100.00;101613.09;4994646;28;20050;-75
2023/09/06 01:46:33;;;;;;;36.47;34.47;;;;;;;16.80;100.00;101611.13;5004728;28;20404;-75
2023/09/06 01:49:00;;;;;;;42.08;39.97;;;;;;;16.80;100.00;101613.81;4995598;28;20050;-75
2023/09/06 01:51:27;;;;;;;42.17;39.88;;;;;;;16.73;100.00;101613.03;5006251;28;20499;-75
2023/09/06 01:53:53;;;;;;;37.25;35.25;;;;;;;16.60;100.00;101614.00;5002186;28;20057;-75
2023/09/06 01:56:20;;;;;;;41.40;39.20;;;;;;;16.71;100.00;101615.13;4992659;28;20061;-74
2023/09/06 01:58:49;;;;;;;51.50;48.67;;;;;;;16.66;100.00;101602.38;5005848;28;20054;-74
2023/09/06 02:01:23;;;;;;;40.58;38.47;;;;;;;16.55;100.00;101610.34;4994917;28;20129;-75
2023/09/06 02:03:50;;;;;;;36.67;34.67;;;;;;;16.62;100.00;101608.44;4992398;28;20054;-75
2023/09/06 02:06:17;;;;;;;33.42;31.33;;;;;;;16.58;100.00;101599.19;4991277;28;20043;-75
2023/09/06 02:08:44;;;;;;;42.88;40.67;;;;;;;16.54;100.00;101606.03;4992487;28;20046;-76
2023/09/06 02:11:11;;;;;;;41.08;38.97;;;;;;;16.90;100.00;101598.00;4997214;28;20722;-75
2023/09/06 02:13:49;;;;;;;39.33;37.22;;;;;;;16.98;100.00;101596.88;4999040;28;20046;-76
2023/09/06 02:16:17;;;;;;;42.80;40.30;;;;;;;16.89;100.00;101593.69;4997605;28;20038;-75
2023/09/06 02:18:44;;;;;;;44.35;42.05;;;;;;;17.15;100.00;101597.03;4995781;28;20046;-75
2023/09/06 02:21:12;;;;;;;38.22;35.85;;;;;;;17.58;100.00;101594.13;4993736;28;20404;-75
2023/09/06 02:23:39;;;;;;;35.17;33.17;;;;;;;17.74;100.00;101589.94;4998920;28;20130;-75
2023/09/06 02:26:12;;;;;;;38.47;36.28;;;;;;;17.98;100.00;101588.09;4995217;28;20057;-75
2023/09/06 02:28:38;;;;;;;45.15;42.75;;;;;;;17.96;100.00;101590.19;4997194;28;20129;-74
2023/09/06 02:31:07;;;;;;;49.20;46.50;;;;;;;18.00;100.00;101590.56;4996983;28;20054;-74
2023/09/06 02:33:34;;;;;;;50.67;47.97;;;;;;;17.90;100.00;101590.31;5000014;28;20103;-75
2023/09/06 02:36:06;;;;;;;49.15;46.55;;;;;;;17.68;100.00;101598.94;4991574;28;20050;-75
2023/09/06 02:38:33;;;;;;;40.58;38.28;;;;;;;18.02;100.00;101593.84;5002278;28;20058;-75
2023/09/06 02:41:00;;;;;;;41.35;39.15;;;;;;;17.50;100.00;101601.69;4993908;28;20495;-75
2023/09/06 02:43:27;;;;;;;33.78;31.77;;;;;;;16.59;100.00;101601.66;4994773;28;20054;-75
2023/09/06 02:45:54;;;;;;;32.30;30.40;;;;;;;16.65;100.00;101608.00;4999011;28;20045;-75
2023/09/06 02:48:22;;;;;;;35.50;33.50;;;;;;;16.82;100.00;101609.03;4997264;28;20050;-75
2023/09/06 02:50:51;;;;;;;34.25;32.35;;;;;;;16.74;100.00;101612.00;4994468;28;20057;-75
2023/09/06 02:53:20;;;;;;;35.38;33.17;;;;;;;16.84;100.00;101609.63;4995332;28;20050;-75
2023/09/06 02:55:51;;;;;;;33.67;31.77;;;;;;;16.81;100.00;101611.94;4991308;28;20124;-75
2023/09/06 02:58:18;;;;;;;31.20;29.40;;;;;;;16.63;100.00;101608.19;4997996;28;20063;-75
2023/09/06 03:01:05;;;;;;;30.80;28.90;;;;;;;16.53;100.00;101607.09;4991747;28;20060;-75
2023/09/06 03:03:34;;;;;;;35.85;33.88;;;;;;;16.60;100.00;101621.25;4993606;28;20054;-75
2023/09/06 03:06:06;;;;;;;34.45;32.55;;;;;;;16.54;100.00;101622.94;4991546;28;20100;-75
2023/09/06 03:08:35;;;;;;;33.67;31.80;;;;;;;16.56;100.00;101626.25;4998979;28;20053;-76
2023/09/06 03:11:11;;;;;;;34.80;32.80;;;;;;;16.75;100.00;101621.69;5001879;28;20058;-75
2023/09/06 03:13:38;;;;;;;34.40;32.40;;;;;;;16.72;100.00;101630.19;4990627;28;20677;-76
2023/09/06 03:16:05;;;;;;;37.70;35.50;;;;;;;16.59;100.00;101635.69;4996897;28;20534;-76
2023/09/06 03:18:34;;;;;;;30.48;28.55;;;;;;;16.77;100.00;101632.22;5002436;28;20072;-76
2023/09/06 03:21:05;;;;;;;32.78;30.88;;;;;;;16.62;100.00;101641.44;4997899;28;20056;-76
2023/09/06 03:23:32;;;;;;;29.75;27.95;;;;;;;16.97;100.00;101648.06;4995539;28;20047;-76
2023/09/06 03:26:00;;;;;;;29.80;28.10;;;;;;;16.92;100.00;101654.13;4997656;28;20050;-76
2023/09/06 03:28:27;;;;;;;30.10;28.40;;;;;;;16.90;100.00;101648.16;4991918;28;20054;-75
2023/09/06 03:30:54;;;;;;;30.65;28.85;;;;;;;17.06;100.00;101652.06;4994356;28;20050;-76
2023/09/06 03:33:22;;;;;;;40.78;38.67;;;;;;;16.85;100.00;101645.31;4999251;28;20049;-75
2023/09/06 03:35:50;;;;;;;41.90;39.72;;;;;;;16.74;100.00;101644.19;5006568;28;20582;-76
2023/09/06 03:38:17;;;;;;;43.25;41.05;;;;;;;17.02;100.00;101640.16;5002344;28;20112;-75
2023/09/06 03:41:07;;;;;;;40.50;38.40;;;;;;;17.24;100.00;101643.97;4995502;28;20535;-76
2023/09/06 03:43:34;;;;;;;25.25;23.65;;;;;;;17.05;100.00;101647.75;4996716;28;20057;-76
2023/09/06 03:46:04;;;;;;;31.08;29.08;;;;;;;16.92;100.00;101651.44;4994701;28;20065;-76
2023/09/06 03:48:31;;;;;;;28.40;26.60;;;;;;;16.64;100.00;101655.44;4990804;28;20061;-76
2023/09/06 03:51:00;;;;;;;23.80;22.20;;;;;;;16.67;100.00;101665.72;5005739;28;20054;-76
2023/09/06 03:53:27;;;;;;;24.65;22.95;;;;;;;16.38;100.00;101653.84;4991869;28;20042;-76
2023/09/06 03:56:05;;;;;;;24.20;22.60;;;;;;;16.62;100.00;101660.22;5002639;28;20077;-76
2023/09/06 03:58:33;;;;;;;22.95;21.35;;;;;;;16.59;100.00;101666.03;4997150;28;20129;-76
2023/09/06 04:01:10;;;;;;;25.77;24.08;;;;;;;16.53;100.00;101663.41;5005977;28;20046;-76
2023/09/06 04:03:38;;;;;;;27.25;25.55;;;;;;;16.44;100.00;101670.91;4997475;28;20108;-75
2023/09/06 04:06:10;;;;;;;26.55;24.85;;;;;;;16.60;100.00;101669.50;5004536;28;20060;-76
2023/09/06 04:08:39;;;;;;;;;;;;;;;16.39;100.00;101676.13;5008480;28;20443;-76
2023/09/06 04:11:06;;;;;;;24.67;23.08;;;;;;;16.47;100.00;101675.84;5002005;28;19928;-76
2023/09/06 04:13:34;;;;;;;24.80;23.10;;;;;;;16.53;100.00;101666.09;4990330;28;20054;-76
2023/09/06 04:16:01;;;;;;;27.48;25.77;;;;;;;16.45;100.00;101681.41;4998835;28;20567;-76
2023/09/06 04:18:28;;;;;;;28.35;26.58;;;;;;;16.51;100.00;101684.25;4998039;28;20511;-76
2023/09/06 04:20:58;;;;;;;31.52;29.63;;;;;;;16.87;100.00;101678.94;5002844;28;20054;-76
2023/09/06 04:23:27;;;;;;;31.85;30.02;;;;;;;16.82;100.00;101678.78;5003422;28;20051;-76
2023/09/06 04:25:55;;;;;;;30.15;28.25;;;;;;;17.08;100.00;101679.53;4997819;28;20060;-76
2023/09/06 04:28:21;;;;;;;36.92;32.20;;;;;;;17.08;100.00;101674.16;4995727;28;20046;-75
2023/09/06 04:30:49;;;;;;;29.02;27.13;;;;;;;17.42;100.00;101677.22;5003238;28;20050;-75
2023/09/06 04:33:15;;;;;;;34.03;31.85;;;;;;;17.36;100.00;101670.88;5004054;28;20053;-76
2023/09/06 04:35:44;;;;;;;30.30;28.40;;;;;;;17.13;100.00;101675.13;4995997;28;20050;-76
2023/09/06 04:38:12;;;;;;;28.27;26.38;;;;;;;17.51;100.00;101660.53;4995435;28;20062;-76
2023/09/06 04:40:42;;;;;;;28.70;26.80;;;;;;;17.65;100.00;101671.91;4999699;28;20078;-76
2023/09/06 04:43:10;;;;;;;31.38;29.17;;;;;;;17.74;100.00;101662.47;5001194;28;20581;-75
2023/09/06 04:45:38;;;;;;;28.67;26.77;;;;;;;17.82;100.00;101669.41;5001297;28;20065;-76
2023/09/06 04:48:06;;;;;;;28.65;26.25;;;;;;;17.95;100.00;101677.28;4997742;28;20046;-76
2023/09/06 04:50:37;;;;;;;26.70;24.90;;;;;;;18.14;100.00;101658.34;5001909;28;20065;-76
2023/09/06 04:53:04;;;;;;;29.50;27.50;;;;;;;18.20;100.00;101668.97;5000568;28;20470;-76
2023/09/06 04:55:35;;;;;;;26.73;24.83;;;;;;;18.43;100.00;101670.88;4999434;28;20042;-76
2023/09/06 04:58:03;;;;;;;30.70;28.60;;;;;;;18.33;100.00;101669.81;4999382;28;20053;-76
2023/09/06 05:00:33;;;;;;;27.80;25.80;;;;;;;18.60;100.00;101678.19;4995497;28;20062;-76
2023/09/06 05:03:00;;;;;;;27.40;25.60;;;;;;;18.66;100.00;101671.88;4997830;28;20050;-75
2023/09/06 05:05:33;;;;;;;27.70;25.70;;;;;;;18.81;100.00;101676.78;4999668;28;20077;-76
2023/09/06 05:08:00;;;;;;;24.80;23.00;;;;;;;18.97;100.00;101678.72;4999460;28;20049;-76
2023/09/06 05:10:26;;;;;;;24.10;22.20;;;;;;;19.17;100.00;101673.75;4997842;28;20602;-76
2023/09/06 05:12:53;;;;;;;26.58;24.67;;;;;;;19.06;100.00;101687.25;4994090;28;20508;-75
2023/09/06 05:15:22;;;;;;;24.48;22.42;;;;;;;19.66;100.00;101684.91;5000667;28;20050;-76
2023/09/06 05:17:48;;;;;;;21.83;20.13;;;;;;;19.18;100.00;101688.03;5000160;28;20049;-76
2023/09/06 05:20:32;;;;;;;21.10;19.40;;;;;;;18.72;100.00;101695.97;4998896;28;20061;-76
2023/09/06 05:23:01;;;;;;;27.35;25.45;;;;;;;19.02;100.00;101699.56;5002037;28;20129;-76
2023/09/06 05:25:28;;;;;;;26.25;24.35;;;;;;;19.04;100.00;101700.97;4998038;28;20136;-76
2023/09/06 05:27:57;;;;;;;27.52;25.63;;;;;;;19.20;100.00;101696.69;4993261;28;20046;-75
2023/09/06 05:30:25;;;;;;;29.38;27.27;;;;;;;19.70;100.00;101704.13;4995024;28;20046;-76
2023/09/06 05:32:52;;;;;;;28.50;26.60;;;;;;;19.77;100.00;101702.09;4943263;28;20053;-75
2023/09/06 05:35:19;;;;;;;26.15;23.98;;;;;;;19.81;100.00;101707.81;4992760;28;20440;-75
2023/09/06 05:37:47;;;;;;;26.65;24.75;;;;;;;20.13;100.00;101708.06;4996560;28;20499;-75
2023/09/06 05:40:14;;;;;;;27.60;25.70;;;;;;;20.32;100.00;101714.03;4989234;28;20054;-76
2023/09/06 05:42:41;;;;;;;29.02;26.92;;;;;;;20.45;100.00;101715.56;4996546;28;20057;-75
2023/09/06 05:45:11;;;;;;;29.45;27.45;;;;;;;20.52;100.00;101716.25;4997280;28;20424;-75
2023/09/06 05:47:39;;;;;;;29.38;27.40;;;;;;;20.65;100.00;101709.66;4995813;28;20077;-75
2023/09/06 05:50:08;;;;;;;29.33;27.23;;;;;;;20.95;100.00;101706.53;4988787;28;20442;-75
2023/09/06 05:52:35;;;;;;;27.10;25.20;;;;;;;20.64;100.00;101710.75;4998452;28;20139;-76
2023/09/06 05:55:03;;;;;;;25.67;23.80;;;;;;;20.91;100.00;101697.28;5003741;28;20050;-75
2023/09/06 05:57:31;;;;;;;27.75;25.85;;;;;;;21.02;100.00;101701.75;5002007;28;20058;-75
2023/09/06 05:59:58;;;;;;;26.45;24.55;;;;;;;21.13;100.00;101703.53;4995543;28;20082;-75
2023/09/06 06:02:25;;;;;;;27.60;25.70;;;;;;;21.39;100.00;101712.78;4991423;28;20050;-75
2023/09/06 06:04:55;;;;;;;27.60;25.70;;;;;;;21.24;100.00;101704.44;4993901;28;20112;-76
2023/09/06 06:07:23;;;;;;;27.90;26.00;;;;;;;22.01;100.00;101708.72;4993232;28;20257;-75
2023/09/06 06:09:49;;;;;;;27.77;25.88;;;;;;;21.83;100.00;101711.81;4993389;28;20444;-75
2023/09/06 06:12:22;;;;;;;28.45;26.55;;;;;;;21.68;100.00;101707.91;4984780;28;20244;-75
2023/09/06 06:14:50;;;;;;;29.05;27.15;;;;;;;21.57;100.00;101702.66;4996338;28;20136;-75
2023/09/06 06:17:17;;;;;;;31.50;28.88;;;;;;;21.94;100.00;101710.84;4992500;28;20041;-75
2023/09/06 06:19:44;;;;;;;30.50;28.60;;;;;;;22.01;100.00;101707.91;4989935;28;20077;-75
2023/09/06 06:22:12;;;;;;;25.15;23.45;;;;;;;22.30;100.00;101711.97;4995372;28;20053;-76
2023/09/06 06:24:42;;;;;;;25.80;23.77;;;;;;;22.28;100.00;101716.81;4992671;28;20065;-75
2023/09/06 06:27:09;;;;;;;25.00;23.10;;;;;;;22.43;100.00;101712.56;4992731;28;20037;-76
2023/09/06 06:29:36;;;;;;;24.10;22.20;;;;;;;22.69;100.00;101714.31;4991466;28;20054;-75
2023/09/06 06:32:03;;;;;;;23.95;22.05;;;;;;;22.89;100.00;101719.03;4995805;28;20427;-75
2023/09/06 06:34:30;;;;;;;24.48;22.58;;;;;;;23.21;100.00;101710.00;4993481;28;20061;-75
2023/09/06 06:36:56;;;;;;;24.92;22.98;;;;;;;22.84;100.00;101709.00;4994065;28;20054;-75
2023/09/06 06:39:26;;;;;;;25.40;23.40;;;;;;;22.91;100.00;101719.59;4996338;28;20058;-75
2023/09/06 06:41:52;;;;;;;24.45;22.55;;;;;;;22.61;100.00;101714.84;4995404;28;20064;-76
2023/09/06 06:44:19;;;;;;;25.88;23.58;;;;;;;23.08;100.00;101711.28;4995283;28;20530;-76
2023/09/06 06:46:46;;;;;;;24.73;22.83;;;;;;;23.79;100.00;101710.66;4995013;28;20534;-76
2023/09/06 06:49:13;;;;;;;25.63;23.63;;;;;;;23.88;100.00;101711.75;4995118;28;20116;-75
2023/09/06 06:51:40;;;;;;;25.85;23.95;;;;;;;23.79;100.00;101718.78;4994818;28;20046;-75
2023/09/06 06:54:08;;;;;;;25.60;23.60;;;;;;;24.22;100.00;101711.97;4993555;28;20435;-76
2023/09/06 06:56:37;;;;;;;25.10;23.10;;;;;;;24.37;100.00;101723.91;4995713;28;20125;-76
2023/09/06 06:59:07;;;;;;;25.42;23.42;;;;;;;24.71;100.00;101717.88;4992038;28;20046;-76
2023/09/06 07:01:34;;;;;;;24.10;22.08;;;;;;;24.67;100.00;101715.72;4990488;28;20054;-76
2023/09/06 07:04:04;;;;;;;23.83;21.83;;;;;;;25.04;100.00;101719.91;4996437;28;20404;-76
2023/09/06 07:06:31;;;;;;;23.50;21.50;;;;;;;25.01;100.00;101730.53;4990053;28;20050;-76
2023/09/06 07:08:59;;;;;;;22.83;20.85;;;;;;;24.92;100.00;101722.94;4995006;28;20050;-76
2023/09/06 07:11:26;;;;;;;23.95;21.85;;;;;;;24.78;100.00;101723.81;4992166;28;20054;-76
2023/09/06 07:13:54;;;;;;;26.15;23.85;;;;;;;24.87;100.00;101723.00;4988006;28;20130;-76
2023/09/06 07:16:21;;;;;;;24.77;22.67;;;;;;;25.12;100.00;101727.50;4991521;28;20058;-76
2023/09/06 07:18:49;;;;;;;23.75;21.75;;;;;;;25.01;100.00;101712.31;4999858;28;20466;-76
2023/09/06 07:21:17;;;;;;;25.25;23.15;;;;;;;24.92;100.00;101719.44;4991265;28;20046;-76
2023/09/06 07:23:44;;;;;;;23.48;21.48;;;;;;;24.75;100.00;101716.22;4992135;28;20061;-76
2023/09/06 07:26:13;;;;;;;23.55;21.55;;;;;;;24.56;100.00;101721.44;4995594;28;20431;-76
2023/09/06 07:28:45;;;;;;;23.65;21.55;;;;;;;24.59;100.00;101720.91;4992426;28;20050;-75
2023/09/06 07:31:14;;;;;;;23.38;21.27;;;;;;;24.38;100.00;101720.91;4993689;28;20058;-75
2023/09/06 07:33:41;;;;;;;26.83;22.60;;;;;;;24.73;100.00;101730.09;4994762;28;20076;-75
2023/09/06 07:36:08;;;;;;;24.00;21.90;;;;;;;25.31;100.00;101721.44;5002916;28;20048;-75
2023/09/06 07:38:35;;;;;;;25.08;22.88;;;;;;;25.36;100.00;101718.69;4970214;28;20046;-75
2023/09/06 07:41:04;;;;;;;31.20;28.85;;;;;;;24.73;100.00;101715.72;4997851;28;20054;-75
2023/09/06 07:43:32;;;;;;;30.48;28.17;;;;;;;25.14;100.00;101716.34;4992134;28;20574;-75
2023/09/06 07:45:59;;;;;;;33.83;31.13;;;;;;;25.52;100.00;101708.53;4995531;28;20073;-75
2023/09/06 07:48:30;;;;;;;32.35;29.85;;;;;;;25.58;100.00;101705.50;5002215;28;20073;-75
2023/09/06 07:50:57;;;;;;;30.95;28.65;;;;;;;25.34;100.00;101712.72;5002525;28;20570;-76
2023/09/06 07:53:28;;;;;;;34.63;32.03;;;;;;;25.08;100.00;101707.41;5000975;28;20607;-75
2023/09/06 07:55:55;;;;;;;33.22;30.42;;;;;;;25.35;100.00;101717.06;5002322;28;20050;-75
2023/09/06 07:58:22;;;;;;;30.20;27.80;;;;;;;25.66;100.00;101714.97;4998610;28;20046;-75
2023/09/06 08:00:51;;;;;;;32.10;29.60;;;;;;;25.72;100.00;101715.72;4999122;28;20046;-75
2023/09/06 08:03:18;;;;;;;33.33;30.83;;;;;;;25.96;100.00;101719.38;4994351;28;20511;-75
2023/09/06 08:05:47;;;;;;;31.95;29.55;;;;;;;26.33;100.00;101722.59;5002981;28;20503;-75
2023/09/06 08:08:13;;;;;;;34.28;31.77;;;;;;;26.40;100.00;101721.13;4994894;28;20078;-75
2023/09/06 08:10:41;;;;;;;31.13;28.63;;;;;;;26.57;100.00;101712.53;5000360;28;20051;-75
2023/09/06 08:13:08;;;;;;;32.70;30.10;;;;;;;26.67;100.00;101722.50;4987954;28;20047;-75
2023/09/06 08:15:37;;;;;;;29.98;27.38;;;;;;;26.77;100.00;101711.47;4999961;28;20058;-75
2023/09/06 08:18:05;;;;;;;24.90;22.60;;;;;;;26.73;100.00;101713.16;4994364;28;20047;-75
2023/09/06 08:20:35;;;;;;;24.40;22.20;;;;;;;27.07;100.00;101715.72;4998131;28;20440;-75
2023/09/06 08:23:04;;;;;;;24.23;22.13;;;;;;;27.22;100.00;101717.47;4998581;28;20478;-76
2023/09/06 08:25:31;;;;;;;27.00;24.80;;;;;;;27.57;100.00;101713.41;5001816;28;20058;-75
2023/09/06 08:27:58;;;;;;;25.60;23.70;;;;;;;27.31;100.00;101720.34;4995742;28;20136;-75
2023/09/06 08:30:25;;;;;;;25.65;23.75;;;;;;;27.64;100.00;101721.22;4999943;28;20045;-75
2023/09/06 08:32:51;;;;;;;25.58;23.67;;;;;;;27.62;100.00;101729.69;4991422;28;20339;-75
2023/09/06 08:35:18;;;;;;;24.63;22.73;;;;;;;27.29;100.00;101715.19;4992879;28;20054;-75
2023/09/06 08:37:46;;;;;;;28.02;26.02;;;;;;;27.51;100.00;101716.53;4991227;28;20054;-75
2023/09/06 08:40:15;;;;;;;26.15;24.25;;;;;;;28.15;100.00;101714.13;4995885;28;20099;-76
2023/09/06 08:42:45;;;;;;;29.23;26.88;;;;;;;28.11;100.00;101713.91;4998126;28;20057;-76
2023/09/06 08:45:12;;;;;;;28.90;26.67;;;;;;;28.31;100.00;101713.53;4999415;28;20053;-75
2023/09/06 08:47:40;;;;;;;33.08;30.67;;;;;;;28.21;100.00;101712.91;4995911;28;20054;-76
2023/09/06 08:50:10;;;;;;;30.05;27.85;;;;;;;27.97;100.00;101715.81;5001274;28;20050;-76
2023/09/06 08:52:39;;;;;;;26.08;24.17;;;;;;;27.88;100.00;101712.13;4994360;28;20054;-75
2023/09/06 08:55:07;;;;;;;25.50;23.70;;;;;;;27.64;100.00;101713.84;4992496;28;20504;-75
2023/09/06 08:57:36;;;;;;;25.92;23.98;;;;;;;27.82;100.00;101708.69;4995975;28;20129;-76
2023/09/06 09:00:04;;;;;;;28.25;25.98;;;;;;;28.42;100.00;101703.25;4994238;28;20058;-75
2023/09/06 09:02:31;;;;;;;32.33;29.92;;;;;;;28.02;100.00;101702.88;4999372;28;20508;-75
2023/09/06 09:04:58;;;;;;;25.08;23.17;;;;;;;28.23;100.00;101694.28;4998356;28;20077;-75
2023/09/06 09:07:25;;;;;;;26.13;24.13;;;;;;;28.35;100.00;101704.72;5001197;28;20483;-75
2023/09/06 09:09:57;;;;;;;26.08;24.17;;;;;;;28.58;95.13;101703.75;5002840;28;20054;-76
2023/09/06 09:12:25;;;;;;;27.80;25.77;;;;;;;28.39;100.00;101708.50;4996097;28;20511;-75
2023/09/06 09:14:56;;;;;;;25.55;23.55;;;;;;;28.01;100.00;101703.97;4991240;28;20066;-76
2023/09/06 09:17:23;;;;;;;26.42;24.50;;;;;;;28.64;100.00;101694.34;4997496;28;20100;-76
2023/09/06 09:19:51;;;;;;;26.55;24.55;;;;;;;28.22;100.00;101695.41;4996859;28;20050;-76
2023/09/06 09:22:24;;;;;;;25.02;23.15;;;;;;;28.14;100.00;101704.28;5000801;28;20057;-75
2023/09/06 09:24:57;;;;;;;24.25;22.45;;;;;;;27.93;100.00;101704.69;4999102;28;20061;-76
2023/09/06 09:27:24;;;;;;;24.70;22.90;;;;;;;28.94;92.12;101698.38;5000754;28;20058;-75
2023/09/06 09:29:50;;;;;;;28.23;26.23;;;;;;;28.86;98.75;101703.75;4993953;28;20058;-76
2023/09/06 09:32:19;;;;;;;27.27;25.27;;;;;;;29.04;96.08;101702.03;4999723;28;20049;-75
2023/09/06 09:34:47;;;;;;;26.80;24.80;;;;;;;29.36;88.33;101703.75;5001737;28;20054;-75
2023/09/06 09:37:13;;;;;;;28.73;26.27;;;;;;;28.97;86.67;101702.41;5002752;28;20046;-76
2023/09/06 09:39:40;;;;;;;30.45;28.17;;;;;;;28.86;90.93;101696.34;4992249;28;20569;-76
2023/09/06 09:42:11;;;;;;;28.90;26.80;;;;;;;29.49;85.44;101699.34;4995230;28;20053;-76
2023/09/06 09:44:38;;;;;;;27.10;25.10;;;;;;;29.48;92.56;101686.81;4997543;28;20054;-76
2023/09/06 09:47:11;;;;;;;24.42;22.52;;;;;;;29.68;82.20;101691.78;5002206;28;20078;-75
2023/09/06 09:49:41;;;;;;;25.92;23.98;;;;;;;29.74;83.02;101681.50;4990437;28;20058;-75
2023/09/06 09:52:12;;;;;;;26.67;24.67;;;;;;;29.55;81.19;101682.50;4997410;28;20050;-76
2023/09/06 09:54:45;;;;;;;27.30;25.30;;;;;;;28.93;94.51;101693.22;4993219;28;20061;-75
2023/09/06 09:57:13;;;;;;;26.73;24.73;;;;;;;29.63;94.13;101676.31;4991986;28;20511;-75
2023/09/06 09:59:42;;;;;;;27.48;25.40;;;;;;;29.92;78.97;101685.16;4992145;28;20043;-76
2023/09/06 10:02:15;;;;;;;23.95;22.15;;;;;;;29.41;99.75;101685.31;4990717;28;20050;-75
2023/09/06 10:04:44;;;;;;;26.60;24.60;;;;;;;30.40;74.81;101687.19;4991892;28;20408;-76
2023/09/06 10:07:14;;;;;;;26.67;24.58;;;;;;;29.71;83.74;101679.41;4992938;28;20046;-75
2023/09/06 10:09:42;;;;;;;25.65;23.75;;;;;;;29.51;90.13;101684.25;4992445;28;20046;-75
2023/09/06 10:12:11;;;;;;;26.15;24.15;;;;;;;30.22;84.97;101676.16;4993251;28;20073;-76
2023/09/06 10:14:40;;;;;;;27.00;25.00;;;;;;;30.69;76.09;101681.16;4990366;28;20546;-76
2023/09/06 10:17:08;;;;;;;26.00;24.10;;;;;;;31.66;67.53;101672.69;4991222;28;20188;-76
2023/09/06 10:19:36;;;;;;;26.33;24.33;;;;;;;30.89;70.01;101685.25;4989330;28;20054;-76
2023/09/06 10:22:06;;;;;;;23.73;21.83;;;;;;;30.94;65.94;101685.09;4988479;28;20050;-76
2023/09/06 10:24:35;;;;;;;23.75;21.85;;;;;;;30.58;76.40;101675.97;4991341;28;20689;-75
2023/09/06 10:27:14;;;;;;;26.80;24.80;;;;;;;30.04;75.78;101675.25;4991826;28;20061;-76
2023/09/06 10:29:53;;;;;;;27.27;25.27;;;;;;;30.42;73.90;101680.28;4989819;28;20435;-76
2023/09/06 10:32:21;;;;;;;25.10;23.20;;;;;;;30.73;66.84;101671.97;5000875;28;20539;-76
2023/09/06 10:38:01;;;;;;;26.48;24.48;;;;;;;30.72;77.90;101669.56;4529316;26;20054;-75
2023/09/06 10:41:10;;;;;;;26.10;24.02;;;;;;;30.42;81.00;101674.78;4993946;23;20146;-75
2023/09/06 10:44:06;;;;;;;25.42;23.33;;;;;;;30.68;72.13;101665.81;4988642;28;20081;-75
2023/09/06 10:46:37;;;;;;;25.42;23.48;;;;;;;31.44;73.20;101668.19;4973822;28;20597;-75
2023/09/06 10:49:19;;;;;;;26.00;24.00;;;;;;;30.08;82.94;101662.56;4978684;28;20042;-75
2023/09/06 10:52:03;;;;;;;;;;;;;;;30.60;78.92;101672.13;4976603;28;20057;-75
2023/09/06 10:54:34;;;;;;;24.30;22.50;;;;;;;30.47;79.51;101671.09;4977311;28;20417;-76
2023/09/06 10:57:07;;;;;;;25.15;23.35;;;;;;;30.86;82.75;101664.75;4984242;28;20058;-76
2023/09/06 10:59:38;;;;;;;24.05;22.35;;;;;;;30.00;81.56;101662.50;4983954;28;20496;-76
2023/09/06 11:02:21;;;;;;;22.05;20.42;;;;;;;30.82;69.50;101649.28;4984408;28;20049;-76
2023/09/06 11:04:48;;;;;;;25.38;23.30;;;;;;;31.17;76.28;101663.81;4978769;28;20050;-78
2023/09/06 11:07:15;;;;;;;22.88;20.95;;;;;;;30.95;63.98;101660.09;4983249;28;20439;-76
2023/09/06 11:09:43;;;;;;;26.30;24.27;;;;;;;30.36;80.73;101654.16;4984024;28;20395;-77
2023/09/06 11:12:12;;;;;;;25.17;23.17;;;;;;;31.76;67.82;101635.81;4985123;28;20058;-77
2023/09/06 11:14:39;;;;;;;25.77;23.77;;;;;;;29.79;77.99;101652.09;4978583;28;20043;-76
2023/09/06 11:17:06;;;;;;;24.88;22.77;;;;;;;30.08;86.01;101648.06;4981571;28;20055;-77